Flight Track Log - Related Links

Times and Time Zones

All times are in EDT time to prevent confusion due to time zone crossing. See the SWA2274 flight status page for this flight to view local times or setup timezone preferences in your user account.

Time Position Orientation Groundspeed Altitude Reporting Facility
EDT Latitude Longitude Course Direction KTS MPH feet Rate Location/Type
Sat 02:42:34 PM 40.7531 -112.0244 249° West 214 246 6,400  Level Salt Lake Center
Sat 02:43:36 PM 40.7656 -112.1122 281° West 261 300 8,800 1,984 Climbing Salt Lake Center
Sat 02:44:38 PM 40.7983 -112.2083 294° West 293 337 10,500 2,081 Climbing Salt Lake Center
Sat 02:45:40 PM 40.8578 -112.3036 310° West 347 399 13,100 3,581 Climbing Salt Lake Center
Sat 02:46:42 PM 40.9592 -112.3781 331° Northwest 340 391 17,900 3,581 Climbing Salt Lake Center
Sat 02:47:44 PM 41.0392 -112.4392 330° Northwest 332 382 20,500 2,516 Climbing Salt Lake Center
Sat 02:48:46 PM 41.1275 -112.5056 330° Northwest 359 413 23,100 2,226 Climbing Salt Lake Center
Sat 02:49:48 PM 41.2189 -112.5747 330° Northwest 378 435 25,100 1,824 Climbing Salt Lake Center
Sat 02:50:51 PM 41.3072 -112.6586 325° Northwest 391 450 26,900 1,104 Climbing Salt Lake Center
Sat 02:51:53 PM 41.3853 -112.7750 312° West 426 490 27,400 1,065 Climbing Salt Lake Center
Sat 02:52:55 PM 41.4697 -112.9006 312° West 454 522 29,100 1,790 Climbing Salt Lake Center
Sat 02:53:57 PM 41.5672 -113.0567 310° West 456 525 31,100 1,984 Climbing Salt Lake Center
Sat 02:54:59 PM 41.6525 -113.1856 312° West 461 531 33,200 1,935 Climbing Salt Lake Center
Sat 02:56:01 PM 41.7364 -113.3139 311° West 460 529 35,100 1,887 Climbing Salt Lake Center
Sat 02:57:03 PM 41.8169 -113.4406 310° West 448 516 37,100 1,403 Climbing Salt Lake Center
Sat 02:58:05 PM 41.8972 -113.5628 311° West 439 505 38,000 435 Climbing Salt Lake Center
Sat 02:59:07 PM 41.9775 -113.6894 310° West 445 512 38,000  Level Salt Lake Center
Sat 03:00:09 PM 42.0808 -113.8339 314° West 448 516 38,000  Level Salt Lake Center
Sat 03:01:11 PM 42.1708 -113.9511 316° Northwest 449 517 38,000  Level Salt Lake Center
Sat 03:02:13 PM 42.2606 -114.0681 316° Northwest 448 516 38,000  Level Salt Lake Center
Sat 03:03:15 PM 42.3494 -114.1831 316° Northwest 445 512 38,000  Level Salt Lake Center
Sat 03:04:17 PM 42.4364 -114.3069 314° West 446 513 38,000  Level Salt Lake Center
Sat 03:05:18 PM 42.5244 -114.4239 316° Northwest 446 513 38,000  Level Salt Lake Center
Sat 03:06:20 PM 42.6300 -114.5650 315° West 444 511 38,000  Level Salt Lake Center
Sat 03:07:22 PM 42.7139 -114.6783 315° West 446 513 38,000  Level Salt Lake Center
Sat 03:08:24 PM 42.8108 -114.8094 315° West 442 509 38,000  Level Salt Lake Center
Sat 03:09:26 PM 42.8947 -114.9217 316° Northwest 438 504 38,000  Level Salt Lake Center
Sat 03:10:28 PM 42.9800 -115.0381 315° West 449 517 38,000  Level Salt Lake Center
Sat 03:11:30 PM 43.0767 -115.1717 315° West 443 510 38,000  Level Salt Lake Center
Sat 03:12:32 PM 43.1606 -115.2872 315° West 447 514 38,000  Level Salt Lake Center
Sat 03:13:34 PM 43.2603 -115.4233 315° West 450 518 38,000  Level Salt Lake Center
Sat 03:14:36 PM 43.3439 -115.5408 314° West 450 518 38,000  Level Salt Lake Center
Sat 03:15:38 PM 43.4414 -115.6767 315° West 446 513 38,000  Level Salt Lake Center
Sat 03:16:40 PM 43.5236 -115.7939 314° West 444 511 38,000  Level Salt Lake Center
Sat 03:17:42 PM 43.6203 -115.9300 314° West 444 511 38,000  Level Salt Lake Center
Sat 03:18:44 PM 43.7022 -116.0458 314° West 440 506 38,000  Level Salt Lake Center
Sat 03:19:46 PM 43.7983 -116.1822 314° West 441 507 38,000  Level Salt Lake Center
Sat 03:20:48 PM 43.8794 -116.2978 314° West 437 503 38,000  Level Salt Lake Center
Sat 03:21:50 PM 43.9606 -116.4153 314° West 437 503 38,000  Level Salt Lake Center
Sat 03:22:52 PM 44.0556 -116.5514 314° West 436 502 38,000  Level Salt Lake Center
Sat 03:23:54 PM 44.1367 -116.6714 313° West 438 504 38,000  Level Salt Lake Center
Sat 03:24:56 PM 44.2314 -116.8078 314° West 436 502 38,000  Level Salt Lake Center
Sat 03:25:58 PM 44.3119 -116.9258 314° West 437 503 38,000  Level Salt Lake Center
Sat 03:27:00 PM 44.4064 -117.0644 314° West 439 505 38,000  Level Salt Lake Center
Sat 03:28:02 PM 44.4869 -117.1814 314° West 436 502 38,000  Level Salt Lake Center
Sat 03:29:04 PM 44.5667 -117.3006 313° West 437 503 38,000  Level Salt Lake Center
Sat 03:30:06 PM 44.6614 -117.4383 314° West 436 502 38,000  Level Salt Lake Center
Sat 03:31:08 PM 44.7403 -117.5586 313° West 437 503 38,000  Level Salt Lake Center
Sat 03:32:10 PM 44.8336 -117.6975 313° West 437 503 38,000  Level Salt Lake Center
Sat 03:32:49 PM 44.8867 -117.7783 313° West 436 502 38,000  Level Seattle Center
Sat 03:33:50 PM 44.9647 -117.8956 313° West 430 495 38,000  Level Seattle Center
Sat 03:34:51 PM 45.0553 -118.0344 313° West 428 493 38,000  Level Seattle Center
Sat 03:35:52 PM 45.1325 -118.1519 313° West 426 490 38,000  Level Seattle Center
Sat 03:36:54 PM 45.2106 -118.2711 313° West 425 489 38,000  Level Seattle Center
Sat 03:37:55 PM 45.2897 -118.3936 313° West 424 488 38,000 -359 Level Seattle Center
Sat 03:39:58 PM 45.4483 -118.6414 312° West 427 491 36,900 -652 Descending Seattle Center
Sat 03:40:59 PM 45.5272 -118.7650 312° West 426 490 36,000 -443 Descending Seattle Center
Sat 03:42:00 PM 45.6239 -118.9153 313° West 429 494 36,000  Level Seattle Center
Sat 03:43:01 PM 45.7042 -119.0397 313° West 430 495 36,000  Level Seattle Center
Sat 03:44:03 PM 45.7819 -119.1647 312° West 426 490 36,000  Level Seattle Center
Sat 03:45:04 PM 45.8603 -119.2889 312° West 423 487 36,000  Level Seattle Center
Sat 03:46:05 PM 45.9364 -119.4117 312° West 417 480 36,000  Level Seattle Center
Sat 03:47:06 PM 46.0136 -119.5361 312° West 419 482 36,000  Level Seattle Center
Sat 03:48:08 PM 46.0903 -119.6597 312° West 417 480 36,000  Level Seattle Center
Sat 03:49:09 PM 46.1664 -119.7822 312° West 412 474 36,000  Level Seattle Center
Sat 03:50:10 PM 46.2583 -119.9317 312° West 417 480 36,000 -246 Level Seattle Center
Sat 03:51:11 PM 46.3339 -120.0567 311° West 416 479 35,500 -1,377 Descending Seattle Center
Sat 03:52:12 PM 46.4086 -120.1811 311° West 412 474 33,200 -2,098 Descending Seattle Center
Sat 03:53:14 PM 46.4817 -120.2989 312° West 399 459 31,200 -1,951 Descending Seattle Center
Sat 03:54:15 PM 46.5503 -120.4164 310° West 387 445 29,200 -1,918 Descending Seattle Center
Sat 03:55:16 PM 46.6111 -120.5306 308° West 363 418 27,300 -1,820 Descending Seattle Center
Sat 03:56:17 PM 46.6672 -120.6475 305° West 355 409 25,500 -1,770 Descending Seattle Center
Sat 03:57:18 PM 46.7214 -120.7625 305° West 347 399 23,700 -1,756 Descending Seattle Center
Sat 03:58:20 PM 46.7725 -120.8725 304° West 332 382 21,900 -1,854 Descending Seattle Center
Sat 03:59:21 PM 46.8322 -121.0022 304° West 323 372 19,900 -1,820 Descending Seattle Center
Sat 04:00:22 PM 46.8833 -121.1086 305° West 322 371 18,200 -1,623 Descending Seattle Center
Sat 04:01:23 PM 46.9361 -121.2197 305° West 323 372 16,600 -1,623 Descending Seattle Center
Sat 04:02:24 PM 46.9828 -121.3250 303° West 314 361 14,900 -1,770 Descending Seattle Center
Sat 04:03:25 PM 47.0358 -121.4400 304° West 310 357 13,000 -1,610 Descending Seattle Center
Sat 04:04:27 PM 47.0842 -121.5394 306° West 298 343 11,600 -1,426 Descending Seattle Center
Sat 04:05:27 PM 47.1300 -121.6361 305° West 288 331 10,100 -1,574 Descending Seattle Center
Sat 04:06:29 PM 47.1572 -121.7447 290° West 285 328 8,400 -1,463 Descending Seattle Center
Sat 04:07:30 PM 47.1822 -121.8639 287° West 282 325 7,100 -893 Descending Seattle Center
Sat 04:08:30 PM 47.1781 -121.9750 267° West 272 313 6,600 -992 Descending Seattle Center
Sat 04:09:31 PM 47.1767 -122.0903 269° West 277 319 5,100 -1,033 Descending Seattle Center
Sat 04:10:32 PM 47.1847 -122.2000 276° West 266 306 4,500 -590 Descending Seattle Center
Sat 04:11:33 PM 47.2267 -122.2683 312° West 226 260 3,900 -720 Descending Seattle Center
Sat 04:12:37 PM 47.2875 -122.2992 341° North 218 251 3,000 -787 Descending Seattle Center
Sat 04:13:35 PM 47.3364 -122.3058 355° North 183 211 2,300 -738 Descending Seattle Center
Sat 04:14:39 PM 47.3806 -122.3083 358° North 146 168 1,500 -768 Descending Seattle Center
Sat 04:15:40 PM 47.4194 -122.3083 360° North 132 152 700 -537 Descending Seattle Center
Sat 04:16:42 PM 47.4569 -122.3094 359° North 135 155 400 -290 Descending Seattle Center
Sat 04:18:00 PM 47.4499 -122.3118 306° West  Level Estimated

Login

Don't have an account? Register now (free) for customized features, flight alerts, and more!